Latest Weather Observations for Jervois

IDD60801

Issued at 1:01 pm CST Tuesday 28 April 2015 (issued every 30 minutes, with the page automatically refreshed every 10 minutes)

About weather observations | Map of weather stations | Latest weather observations for NT | Other Formats
Station Details ID: 015602 Name: JERVOIS Lat: -22.95 Lon: 136.14 Height: 328.0 m
Data from the previous 72 hours. | See also: Recent months at Jervois
Date/Time
CST
Temp
°C
App
Temp
°C
Dew
Point
Rel
Hum
%
Delta-T
°C
Wind Press
QNH
hPa
Press
MSL
hPa
Rain
since 9 am
mm
Dir
 
Spd
km/h
Gust
km/h
Spd
kts
Gust
kts
28/01:00pm 19.8 14.1 0.6 27 8.7 SSE 20 35 11 19 1023.1 - 0.0
28/12:30pm 20.0 14.4 0.9 28 8.7 SSE 20 32 11 17 1023.7 - 0.0
28/12:00pm 19.2 13.6 1.2 30 8.2 SE 20 30 11 16 1024.4 1023.0 0.0
28/11:30am 18.7 12.3 1.0 30 8.0 SE 24 37 13 20 1025.1 - 0.0
28/11:00am 18.9 13.6 1.7 31 7.9 SE 19 32 10 17 1025.7 - 0.0
28/10:30am 17.8 11.4 1.1 32 7.5 SE 24 33 13 18 1025.9 - 0.0
28/10:00am 16.8 10.9 1.4 35 6.9 SE 22 32 12 17 1026.2 - 0.0
28/09:30am 16.0 10.1 2.0 39 6.3 ESE 22 32 12 17 1026.2 - 0.0
28/09:00am 15.0 9.1 1.7 40 5.9 ESE 22 33 12 18 1026.1 1024.9 0.0
28/08:30am 13.9 8.4 1.9 44 5.3 SE 20 30 11 16 1026.0 - 0.0
28/08:00am 13.0 7.7 2.1 47 4.8 SE 19 26 10 14 1025.8 - 0.0
28/07:30am 11.8 7.4 2.5 53 4.1 SE 15 20 8 11 1025.5 - 0.0
28/07:00am 10.8 7.1 2.5 56 3.6 SSE 11 17 6 9 1025.2 - 0.0
28/06:30am 10.9 7.3 2.7 57 3.6 SSE 11 15 6 8 1024.9 - 0.0
28/06:00am 11.4 7.8 2.8 55 3.8 SSE 11 17 6 9 1024.4 1023.0 0.0
28/05:30am 11.8 7.7 2.5 53 4.1 SE 13 20 7 11 1023.8 - 0.0
28/05:00am 12.2 7.7 2.1 50 4.4 SE 15 22 8 12 1023.7 - 0.0
28/04:30am 12.5 8.1 2.6 51 4.4 SE 15 22 8 12 1023.6 - 0.0
28/04:00am 12.8 8.3 2.4 49 4.6 SE 15 24 8 13 1023.4 - 0.0
28/03:30am 12.5 8.5 2.6 51 4.4 SSE 13 19 7 10 1023.6 - 0.0
28/03:00am 12.8 8.8 2.7 50 4.5 SSE 13 17 7 9 1023.4 1022.1 0.0
28/02:30am 13.0 9.4 2.7 49 4.6 SSE 11 17 6 9 1023.4 - 0.0
28/02:00am 13.6 9.6 2.7 47 4.9 SSE 13 19 7 10 1023.5 - 0.0
28/01:30am 14.1 10.0 2.5 45 5.2 SSE 13 19 7 10 1023.7 - 0.0
28/01:00am 14.7 10.3 2.5 43 5.5 SSE 15 22 8 12 1023.8 - 0.0
28/12:30am 14.5 10.9 2.8 45 5.3 SSE 11 17 6 9 1024.0 - 0.0
28/12:00am 14.9 11.3 3.1 45 5.4 SSE 11 15 6 8 1024.5 1023.2 0.0
 
Date/Time
CST
Temp
°C
App
Temp
°C
Dew
Point
Rel
Hum
%
Delta-T
°C
Wind Press
QNH
hPa
Press
MSL
hPa
Rain
since 9 am
mm
Dir
 
Spd
km/h
Gust
km/h
Spd
kts
Gust
kts
27/11:30pm 15.6 11.6 2.6 41 5.9 SSE 13 19 7 10 1024.5 - 0.0
27/11:00pm 16.2 11.7 2.4 39 6.3 SSE 15 20 8 11 1024.6 - 0.0
27/10:30pm 16.8 12.0 2.4 38 6.6 SSE 17 20 9 11 1024.7 - 0.0
27/10:00pm 17.1 13.0 2.5 37 6.7 SSE 13 20 7 11 1024.4 - 0.0
27/09:30pm 16.9 13.7 2.8 39 6.5 S 9 15 5 8 1024.6 - 0.0
27/09:00pm 17.3 13.7 3.2 39 6.6 SSE 11 15 6 8 1024.4 1023.0 0.0
27/08:30pm 17.8 14.2 2.7 36 7.0 SSE 11 15 6 8 1023.9 - 0.0
27/08:00pm 17.6 14.4 3.3 38 6.7 SSE 9 13 5 7 1023.4 - 0.0
27/07:30pm 18.3 15.0 2.6 35 7.3 SSE 9 15 5 8 1023.2 - 0.0
27/07:00pm 19.0 15.7 2.5 33 7.7 SSE 9 13 5 7 1023.2 - 0.0
27/06:30pm 19.8 14.9 1.9 30 8.3 SSE 17 24 9 13 1022.8 - 0.0
27/06:00pm 20.3 15.1 2.2 30 8.5 SSE 19 30 10 16 1022.4 1021.1 0.0
27/05:30pm 20.8 15.3 2.1 29 8.8 SSE 20 30 11 16 1022.1 - 0.0
27/05:00pm 21.3 15.8 2.0 28 9.1 SSE 20 33 11 18 1021.7 - 0.0
27/04:30pm 21.8 16.6 2.2 27 9.3 SSE 19 26 10 14 1021.5 - 0.0
27/04:00pm 22.6 17.1 1.6 25 9.9 SE 20 30 11 16 1021.4 - 0.0
27/03:30pm 22.5 17.0 2.1 26 9.7 SE 20 32 11 17 1021.2 - 0.0
27/03:00pm 22.0 16.2 2.2 27 9.4 ESE 22 33 12 18 1021.4 1020.0 0.0
27/02:30pm 22.4 17.0 2.3 26 9.6 SE 20 35 11 19 1021.5 - 0.0
27/02:00pm 22.0 17.1 2.2 27 9.4 SSE 17 30 9 16 1021.5 - 0.0
27/01:30pm 21.8 15.9 1.9 27 9.4 ESE 22 35 12 19 1022.0 - 0.0
27/01:00pm 21.4 15.3 2.5 28 9.0 SSE 24 39 13 21 1022.5 - 0.0
27/12:30pm 21.2 15.6 3.4 31 8.6 SSE 22 39 12 21 1023.1 - 0.0
27/12:00pm 20.2 14.6 3.6 33 8.0 SSE 22 33 12 18 1023.7 1022.4 0.0
27/11:30am 19.9 14.0 4.0 35 7.7 SE 24 35 13 19 1024.0 - 0.0
27/11:00am 19.3 13.2 4.8 38 7.1 ESE 26 39 14 21 1024.6 - 0.0
27/10:30am 19.5 13.5 5.1 38 7.1 ESE 26 35 14 19 1025.0 - 0.0
27/10:00am 18.3 12.6 4.7 40 6.6 ESE 24 33 13 18 1025.0 - 0.0
27/09:30am 17.7 12.8 5.2 43 6.1 SE 20 30 11 16 1025.5 - 0.0
27/09:00am 16.2 11.5 5.2 48 5.3 ESE 19 24 10 13 1025.3 1023.9 0.0
27/08:30am 15.1 10.4 5.0 51 4.8 SE 19 26 10 14 1025.1 - 0.0
27/08:00am 14.4 10.1 5.1 53 4.4 SE 17 28 9 15 1024.9 - 0.0
27/07:30am 13.0 9.0 5.1 58 3.7 SE 15 20 8 11 1024.4 - 0.0
27/07:00am 12.5 9.3 5.3 61 3.4 SE 11 17 6 9 1024.1 - 0.0
27/06:30am 11.7 8.9 5.3 65 3.0 SSE 9 13 5 7 1023.8 - 0.0
27/06:00am 11.8 8.2 4.9 62 3.2 SSE 13 19 7 10 1023.3 1021.9 0.0
27/05:30am 11.9 8.3 4.8 62 3.3 SSE 13 19 7 10 1023.0 - 0.0
27/05:00am 12.1 8.4 4.5 59 3.5 SSE 13 19 7 10 1023.0 - 0.0
27/04:30am 12.6 8.8 3.8 55 4.0 SSE 13 20 7 11 1022.9 - 0.0
27/04:00am 12.6 8.8 4.1 56 3.9 SSE 13 17 7 9 1022.9 - 0.0
27/03:30am 12.9 9.1 3.7 53 4.2 SSE 13 17 7 9 1022.9 - 0.0
27/03:00am 13.2 9.3 3.5 52 4.4 SSE 13 17 7 9 1022.9 1021.6 0.0
27/02:30am 13.4 9.5 3.3 50 4.6 SSE 13 20 7 11 1022.7 - 0.0
27/02:00am 13.6 9.7 3.5 50 4.6 SSE 13 17 7 9 1022.8 - 0.0
27/01:30am 14.0 10.1 3.2 48 4.9 SSE 13 20 7 11 1022.8 - 0.0
27/01:00am 14.1 10.2 3.4 48 4.9 SSE 13 17 7 9 1022.9 - 0.0
27/12:30am 14.6 10.3 3.5 47 5.1 SSE 15 20 8 11 1023.0 - 0.0
27/12:00am 15.0 11.2 4.1 48 5.1 SSE 13 19 7 10 1023.2 1021.9 0.0
 
Date/Time
CST
Temp
°C
App
Temp
°C
Dew
Point
Rel
Hum
%
Delta-T
°C
Wind Press
QNH
hPa
Press
MSL
hPa
Rain
since 9 am
mm
Dir
 
Spd
km/h
Gust
km/h
Spd
kts
Gust
kts
26/11:30pm 15.3 11.6 4.2 47 5.2 SSE 13 17 7 9 1023.3 - 0.0
26/11:00pm 15.7 12.8 4.5 47 5.3 SSE 9 15 5 8 1023.5 - 0.0
26/10:30pm 16.2 12.9 4.7 46 5.5 S 11 17 6 9 1023.6 - 0.0
26/10:00pm 16.8 13.5 4.7 44 5.8 S 11 19 6 10 1023.6 - 0.0
26/09:30pm 17.0 13.7 4.5 43 6.0 S 11 17 6 9 1023.5 - 0.0
26/09:00pm 16.8 13.9 4.7 44 5.8 S 9 13 5 7 1023.2 1021.9 0.0
26/08:30pm 17.3 14.3 4.3 42 6.2 S 9 11 5 6 1022.9 - 0.0
26/08:00pm 18.0 15.0 4.3 40 6.6 S 9 13 5 7 1022.6 - 0.0
26/07:30pm 18.6 15.6 4.3 38 6.9 SSE 9 15 5 8 1022.3 - 0.0
26/07:00pm 19.1 16.1 3.9 36 7.3 SSE 9 13 5 7 1021.9 - 0.0
26/06:30pm 20.2 16.2 3.0 32 8.2 SSE 13 19 7 10 1021.3 - 0.0
26/06:00pm 20.9 16.5 2.6 30 8.7 SSE 15 22 8 12 1020.9 1019.6 0.0
26/05:30pm 21.7 16.2 1.7 26 9.4 SSE 20 33 11 18 1020.7 - 0.0
26/05:00pm 22.2 16.9 1.6 25 9.7 SSE 19 30 10 16 1020.5 - 0.0
26/04:30pm 22.5 16.4 0.7 23 10.1 SE 22 32 12 17 1020.5 - 0.0
26/04:00pm 22.7 17.1 1.1 24 10.1 SE 20 33 11 18 1020.3 - 0.0
26/03:30pm 22.6 16.6 1.3 24 10.0 SSE 22 32 12 17 1020.3 - 0.0
26/03:00pm 22.8 17.2 1.3 24 10.1 SSE 20 37 11 20 1020.4 1019.1 0.0
26/02:30pm 22.5 17.1 1.1 24 10.0 SE 19 30 10 16 1020.7 - 0.0
26/02:00pm 22.7 17.5 2.2 26 9.8 SSE 19 30 10 16 1020.9 - 0.0
26/01:30pm 22.2 17.0 3.3 29 9.2 SE 20 30 11 16 1021.4 - 0.0
26/01:00pm 21.6 16.4 2.5 28 9.1 SSE 19 33 10 18 1021.8 - 0.0
26/12:30pm 21.4 15.6 2.1 28 9.1 SE 22 33 12 18 1022.2 - 0.0
26/12:00pm 20.3 14.2 2.8 31 8.3 SE 24 35 13 19 1022.9 1021.7 0.0
26/11:30am 20.3 15.1 3.4 32 8.1 SSE 20 30 11 16 1023.5 - 0.0
26/10:30am 18.9 12.9 3.3 35 7.4 SE 24 32 13 17 1024.4 - 0.0
26/10:00am 18.8 13.2 3.4 36 7.3 SE 22 32 12 17 1024.8 - 0.0
26/09:30am 17.6 13.2 2.7 37 6.9 SE 15 24 8 13 1024.8 - 0.0
26/09:00am 16.1 12.0 2.5 40 6.2 SSE 13 20 7 11 1024.6 1023.2 0.0
26/08:30am 15.2 11.2 2.6 42 5.7 S 13 20 7 11 1024.5 - 0.0
26/08:00am 13.1 9.8 2.2 47 4.8 S 9 13 5 7 1023.9 - 0.0
26/07:30am 11.0 7.6 2.0 54 3.9 S 9 13 5 7 1023.6 - 0.0
26/07:00am 8.9 5.5 2.1 62 2.9 SSW 9 13 5 7 1023.3 - 0.0
26/06:30am 8.8 5.4 1.9 62 2.9 SSW 9 13 5 7 1023.2 - 0.0
26/06:00am 8.7 5.3 1.8 62 2.9 SW 9 11 5 6 1022.9 1021.6 0.0
26/05:30am 8.6 5.6 2.0 63 2.8 SW 7 11 4 6 1022.6 - 0.0
26/05:00am 9.0 5.6 1.9 61 3.0 WSW 9 11 5 6 1022.5 - 0.0
26/04:30am 8.9 5.6 2.3 63 2.8 W 9 11 5 6 1022.2 - 0.0
26/04:00am 8.6 5.3 2.2 64 2.7 SW 9 11 5 6 1021.9 - 0.0
26/03:30am 8.3 5.7 3.0 69 2.3 SW 6 7 3 4 1021.9 - 0.0
26/03:00am 8.7 6.0 2.9 67 2.5 SW 6 7 3 4 1022.0 1020.6 0.0
26/02:30am 9.2 7.6 2.7 64 2.8 CALM 0 0 0 0 1022.1 - 0.0
26/02:00am 10.3 8.7 2.2 57 3.5 CALM 0 0 0 0 1022.1 - 0.0
26/01:30am 10.7 7.8 2.4 56 3.6 SSW 7 9 4 5 1021.9 - 0.0
26/01:00am 10.9 7.9 2.1 54 3.8 S 7 9 4 5 1022.0 - 0.0
26/12:30am 12.2 9.4 1.9 49 4.5 S 6 9 3 5 1022.1 - 0.0
26/12:00am 12.8 9.7 1.5 46 4.9 S 7 11 4 6 1022.2 1020.9 0.0
 
Date/Time
CST
Temp
°C
App
Temp
°C
Dew
Point
Rel
Hum
%
Delta-T
°C
Wind Press
QNH
hPa
Press
MSL
hPa
Rain
since 9 am
mm
Dir
 
Spd
km/h
Gust
km/h
Spd
kts
Gust
kts
25/11:30pm 13.2 9.7 1.5 45 5.1 S 9 13 5 7 1022.2 - 0.0
25/11:00pm 13.2 10.4 1.8 46 5.0 S 6 9 3 5 1022.4 - 0.0
25/10:30pm 13.8 10.7 1.5 43 5.4 S 7 9 4 5 1022.3 - 0.0
25/10:00pm 13.9 10.9 2.2 45 5.2 S 7 9 4 5 1022.2 - 0.0
25/09:30pm 14.3 11.3 1.9 43 5.5 S 7 9 4 5 1022.1 - 0.0
25/09:00pm 14.7 11.8 2.5 43 5.5 S 7 9 4 5 1021.9 1020.5 0.0
25/08:30pm 15.7 12.3 1.6 38 6.3 S 9 11 5 6 1021.7 - 0.0
25/08:00pm 16.1 12.7 1.6 37 6.5 S 9 11 5 6 1021.5 - 0.0
25/07:30pm 17.0 13.5 1.1 34 7.1 SSE 9 13 5 7 1021.2 - 0.0
25/07:00pm 17.7 13.3 0.6 31 7.6 S 13 20 7 11 1020.6 - 0.0
25/06:30pm 18.4 14.0 0.1 29 8.1 S 13 19 7 10 1020.1 - 0.0
25/06:00pm 19.3 13.4 -1.1 25 8.9 S 20 30 11 16 1019.7 1018.4 0.0
25/05:30pm 20.2 14.4 -1.2 23 9.4 S 19 30 10 16 1019.5 - 0.0
25/05:00pm 20.6 14.2 -1.6 22 9.7 S 22 33 12 18 1019.2 - 0.0
25/04:30pm 21.1 15.1 -1.8 21 10.0 S 20 35 11 19 1018.9 - 0.0
25/04:00pm 21.3 15.3 -1.3 22 10.0 S 20 32 11 17 1018.8 - 0.0
25/03:30pm 21.4 15.6 -0.3 23 9.8 S 20 33 11 18 1018.8 - 0.0
25/03:00pm 21.2 15.0 0.0 24 9.6 S 22 43 12 23 1018.8 1017.4 0.0
25/02:30pm 21.5 15.5 1.0 25 9.5 SSW 22 39 12 21 1018.9 - 0.0
25/02:00pm 21.2 14.8 0.8 25 9.4 S 24 35 13 19 1019.1 - 0.0
25/01:30pm 20.2 13.8 1.0 27 8.8 S 24 35 13 19 1019.6 - 0.0

Other Formats:

Comma delimited format used in spreadsheet applications
http://www.bom.gov.au/fwo/IDD60801/IDD60801.94327.axf

JavaScript Object Notation format (JSON) in row-major order
http://www.bom.gov.au/fwo/IDD60801/IDD60801.94327.json